createdAt,value
2023-03-15T00:02:22.601Z,100.00
2023-03-15T00:07:26.737Z,100.00
2023-03-15T00:12:31.025Z,100.00
2023-03-15T00:17:36.248Z,100.00
2023-03-15T00:22:40.244Z,100.00
2023-03-15T00:27:44.326Z,100.00
2023-03-15T00:32:49.640Z,100.00
2023-03-15T00:37:56.122Z,100.00
2023-03-15T00:43:00.198Z,100.00
2023-03-15T00:48:06.038Z,100.00
2023-03-15T00:53:11.622Z,100.00
2023-03-15T00:58:15.701Z,100.00
2023-03-15T01:03:21.085Z,100.00
2023-03-15T01:08:25.480Z,100.00
2023-03-15T01:13:30.323Z,100.00
2023-03-15T01:18:35.635Z,100.00
2023-03-15T01:23:39.830Z,100.00
2023-03-15T01:28:43.924Z,100.00
2023-03-15T01:33:49.499Z,100.00
2023-03-15T01:38:53.929Z,100.00
2023-03-15T01:44:03.531Z,100.00
2023-03-15T01:49:12.515Z,100.00
2023-03-15T01:54:22.574Z,100.00
2023-03-15T01:59:29.717Z,100.00
2023-03-15T02:04:37.503Z,100.00
2023-03-15T02:09:45.697Z,100.00
2023-03-15T02:14:51.965Z,100.00
2023-03-15T02:20:06.820Z,100.00
2023-03-15T02:25:17.107Z,100.00
2023-03-15T02:30:23.090Z,100.00
2023-03-15T02:35:28.653Z,100.00
2023-03-15T02:40:33.083Z,100.00
2023-03-15T02:45:39.524Z,100.00
2023-03-15T02:50:43.817Z,100.00
2023-03-15T02:55:48.171Z,100.00
2023-03-15T03:00:55.301Z,100.00
2023-03-15T03:05:59.408Z,100.00
2023-03-15T03:11:03.477Z,100.00
2023-03-15T03:16:10.258Z,100.00
2023-03-15T03:21:15.158Z,100.00
2023-03-15T03:26:20.722Z,100.00
2023-03-15T03:31:29.157Z,100.00
2023-03-15T03:36:34.147Z,100.00
2023-03-15T03:41:39.040Z,100.00
2023-03-15T03:46:46.047Z,100.00
2023-03-15T03:51:51.143Z,100.00
2023-03-15T03:56:55.458Z,100.00
2023-03-15T04:02:05.033Z,100.00
2023-03-15T04:07:09.072Z,100.00
2023-03-15T04:12:16.288Z,100.00
2023-03-15T04:17:24.590Z,100.00
2023-03-15T04:22:29.274Z,100.00
2023-03-15T04:27:59.782Z,100.00
2023-03-15T04:33:20.114Z,100.00
2023-03-15T04:39:05.584Z,100.00
2023-03-15T04:44:26.838Z,100.00
2023-03-15T04:49:32.354Z,100.00
2023-03-15T04:54:45.903Z,100.00
2023-03-15T04:59:49.754Z,100.00
2023-03-15T05:04:57.773Z,100.00
2023-03-15T05:10:26.425Z,100.00
2023-03-15T05:16:06.152Z,100.00
2023-03-15T05:21:21.451Z,100.00
2023-03-15T05:26:58.129Z,100.00
2023-03-15T05:32:26.653Z,100.00
2023-03-15T05:37:52.157Z,100.00
2023-03-15T05:43:28.133Z,100.00
2023-03-15T05:48:50.330Z,100.00
2023-03-15T05:54:07.801Z,100.00
2023-03-15T05:59:40.683Z,100.00
2023-03-15T06:05:05.500Z,100.00
2023-03-15T06:10:12.788Z,100.00
2023-03-15T06:15:17.868Z,100.00
2023-03-15T06:20:22.955Z,100.00
2023-03-15T06:25:28.880Z,100.00
2023-03-15T06:30:32.988Z,100.00
2023-03-15T06:35:38.462Z,100.00
2023-03-15T06:40:44.850Z,100.00
2023-03-15T06:45:49.018Z,100.00
2023-03-15T06:50:53.891Z,100.00
2023-03-15T06:55:59.208Z,100.00
2023-03-15T07:01:03.091Z,100.00
2023-03-15T07:06:07.642Z,100.00
2023-03-15T07:11:14.209Z,100.00
2023-03-15T07:16:18.466Z,100.00
2023-03-15T07:21:22.653Z,100.00
2023-03-15T07:26:28.167Z,100.00
2023-03-15T07:31:32.380Z,100.00
2023-03-15T07:36:36.663Z,100.00
2023-03-15T07:41:42.132Z,100.00
2023-03-15T07:46:59.117Z,100.00
2023-03-15T07:52:03.611Z,100.00
2023-03-15T07:57:09.614Z,100.00
2023-03-15T08:02:16.023Z,100.00
2023-03-15T08:07:20.348Z,100.00
2023-03-15T08:12:26.976Z,100.00
2023-03-15T08:17:31.246Z,100.00
2023-03-15T08:22:36.483Z,100.00
2023-03-15T08:27:43.195Z,99.78
2023-03-15T08:32:48.478Z,100.00
2023-03-15T08:37:52.988Z,94.37
2023-03-15T08:42:58.799Z,94.63
2023-03-15T08:48:03.214Z,94.15
2023-03-15T08:53:08.148Z,90.77
2023-03-15T08:58:14.415Z,90.36
2023-03-15T09:03:18.944Z,87.60
2023-03-15T09:08:25.272Z,82.84
2023-03-15T09:13:30.737Z,83.96
2023-03-15T09:18:35.267Z,81.97
2023-03-15T09:23:42.414Z,82.96
2023-03-15T09:28:48.401Z,80.51
2023-03-15T09:33:52.250Z,76.07
2023-03-15T09:38:56.581Z,74.58
2023-03-15T09:44:10.329Z,76.72
2023-03-15T09:49:18.486Z,75.64
2023-03-15T09:54:25.926Z,72.85
2023-03-15T09:59:34.207Z,72.86
2023-03-15T10:04:41.974Z,74.18
2023-03-15T10:09:46.870Z,72.85
2023-03-15T10:15:20.547Z,73.83
2023-03-15T10:20:28.625Z,71.79
2023-03-15T10:25:34.261Z,72.63
2023-03-15T10:30:41.598Z,71.26
2023-03-15T10:35:45.530Z,68.41
2023-03-15T10:40:51.058Z,68.55
2023-03-15T10:46:04.517Z,69.30
2023-03-15T10:51:15.707Z,71.05
2023-03-15T10:56:25.944Z,70.72
2023-03-15T11:01:34.859Z,72.59
2023-03-15T11:06:43.669Z,70.65
2023-03-15T11:11:54.356Z,68.83
2023-03-15T11:17:00.401Z,70.21
2023-03-15T11:22:04.733Z,67.83
2023-03-15T11:27:13.946Z,69.70
2023-03-15T11:32:21.091Z,70.08
2023-03-15T11:37:29.369Z,70.04
2023-03-15T11:42:37.871Z,69.35
2023-03-15T11:47:48.740Z,69.69
2023-03-15T11:52:53.542Z,69.81
2023-03-15T11:57:58.198Z,70.64
2023-03-15T12:03:25.744Z,69.94
2023-03-15T12:08:44.253Z,68.46
2023-03-15T12:14:04.081Z,69.12
2023-03-15T12:19:16.345Z,68.26
2023-03-15T12:24:25.213Z,68.83
2023-03-15T12:29:32.621Z,68.95
2023-03-15T12:34:46.537Z,67.60
2023-03-15T12:39:52.121Z,67.51
2023-03-15T12:44:56.212Z,67.44
2023-03-15T12:50:21.871Z,68.66
2023-03-15T12:55:28.833Z,69.45
2023-03-15T13:00:33.820Z,68.57
2023-03-15T13:06:02.862Z,69.56
2023-03-15T13:11:16.093Z,68.14
2023-03-15T13:16:28.581Z,67.48
2023-03-15T13:21:37.352Z,64.26
2023-03-15T13:26:52.291Z,64.59
2023-03-15T13:32:09.909Z,64.38
2023-03-15T13:37:26.713Z,63.58
2023-03-15T13:42:30.691Z,63.26
2023-03-15T13:47:36.042Z,63.24
2023-03-15T13:52:42.279Z,63.72
2023-03-15T13:57:46.617Z,62.20
2023-03-15T14:02:54.166Z,63.21
2023-03-15T14:08:02.769Z,62.30
2023-03-15T14:13:24.591Z,63.09
2023-03-15T14:18:32.755Z,63.50
2023-03-15T14:23:41.948Z,64.20
2023-03-15T14:28:50.177Z,64.05
2023-03-15T14:33:55.515Z,64.95
2023-03-15T14:39:00.806Z,64.62
2023-03-15T14:44:04.947Z,65.49
2023-03-15T14:49:13.186Z,65.62
2023-03-15T14:54:18.604Z,63.88
2023-03-15T14:59:22.696Z,64.01
2023-03-15T15:04:31.009Z,60.89
2023-03-15T15:09:39.045Z,60.10
2023-03-15T15:14:44.099Z,59.03
2023-03-15T15:19:48.024Z,58.77
2023-03-15T15:24:53.679Z,59.45
2023-03-15T15:29:57.812Z,59.27
2023-03-15T15:35:02.628Z,58.70
2023-03-15T15:40:16.278Z,59.97
2023-03-15T15:45:20.915Z,60.41
2023-03-15T15:50:25.098Z,60.60
2023-03-15T15:55:33.716Z,60.68
2023-03-15T16:00:37.777Z,61.95
2023-03-15T16:05:42.238Z,62.46
2023-03-15T16:10:47.564Z,63.69
2023-03-15T16:15:51.510Z,64.32
2023-03-15T16:20:55.828Z,64.77
2023-03-15T16:26:01.355Z,66.43
2023-03-15T16:31:05.264Z,67.77
2023-03-15T16:36:17.746Z,67.43
2023-03-15T16:41:23.105Z,68.83
2023-03-15T16:46:27.032Z,70.80
2023-03-15T16:51:31.785Z,70.63
2023-03-15T16:56:38.054Z,73.31
2023-03-15T17:01:42.254Z,74.30
2023-03-15T17:06:47.086Z,75.15
2023-03-15T17:11:53.251Z,76.64
2023-03-15T17:16:57.519Z,76.31
2023-03-15T17:22:01.429Z,78.50
2023-03-15T17:27:07.441Z,79.14
2023-03-15T17:32:13.134Z,78.69
2023-03-15T17:37:18.592Z,79.19
2023-03-15T17:42:24.085Z,80.97
2023-03-15T17:47:29.197Z,82.01
2023-03-15T17:52:33.158Z,83.17
2023-03-15T17:57:42.976Z,85.39
2023-03-15T18:02:55.608Z,87.08
2023-03-15T18:08:00.634Z,88.05
2023-03-15T18:13:07.562Z,90.90
2023-03-15T18:18:11.942Z,97.29
2023-03-15T18:23:17.814Z,99.60
2023-03-15T18:28:23.327Z,100.00
2023-03-15T18:33:27.452Z,100.00
2023-03-15T18:38:31.489Z,100.00
2023-03-15T18:43:37.085Z,100.00
2023-03-15T18:48:42.785Z,100.00
2023-03-15T18:53:47.250Z,100.00
2023-03-15T18:58:53.825Z,100.00
2023-03-15T19:03:57.782Z,100.00
2023-03-15T19:09:01.711Z,100.00
2023-03-15T19:14:07.230Z,100.00
2023-03-15T19:19:11.266Z,100.00
2023-03-15T19:24:15.335Z,100.00
2023-03-15T19:29:20.936Z,100.00
2023-03-15T19:34:24.917Z,100.00
2023-03-15T19:39:29.065Z,100.00
2023-03-15T19:44:36.302Z,100.00
2023-03-15T19:49:41.369Z,100.00
2023-03-15T19:54:47.053Z,100.00
2023-03-15T19:59:52.307Z,100.00
2023-03-15T20:04:56.505Z,100.00
2023-03-15T20:10:00.812Z,100.00
2023-03-15T20:15:10.062Z,100.00
2023-03-15T20:20:15.028Z,100.00
2023-03-15T20:25:21.431Z,100.00
2023-03-15T20:30:27.077Z,100.00
2023-03-15T20:35:31.235Z,100.00
2023-03-15T20:40:36.058Z,100.00
2023-03-15T20:45:41.776Z,100.00
2023-03-15T20:50:47.715Z,100.00
2023-03-15T20:55:51.672Z,100.00
2023-03-15T21:01:05.369Z,100.00
2023-03-15T21:06:10.263Z,100.00
2023-03-15T21:11:14.210Z,100.00
2023-03-15T21:16:19.858Z,100.00
2023-03-15T21:21:24.030Z,100.00
2023-03-15T21:26:28.202Z,100.00
2023-03-15T21:31:33.699Z,100.00
2023-03-15T21:36:37.772Z,100.00
2023-03-15T21:41:41.937Z,100.00
2023-03-15T21:46:47.906Z,100.00
2023-03-15T21:51:52.314Z,100.00
2023-03-15T21:56:56.721Z,100.00
2023-03-15T22:02:02.704Z,100.00
2023-03-15T22:07:07.173Z,100.00
2023-03-15T22:12:12.556Z,100.00
2023-03-15T22:17:19.389Z,100.00
2023-03-15T22:22:24.904Z,100.00
2023-03-15T22:27:29.036Z,100.00
2023-03-15T22:32:34.514Z,100.00
2023-03-15T22:37:38.691Z,100.00
2023-03-15T22:42:44.221Z,100.00
2023-03-15T22:47:50.634Z,100.00
2023-03-15T22:52:55.545Z,100.00
2023-03-15T22:57:59.690Z,100.00
2023-03-15T23:03:05.014Z,100.00
2023-03-15T23:08:09.806Z,100.00
2023-03-15T23:13:14.419Z,100.00
2023-03-15T23:18:20.120Z,100.00
2023-03-15T23:23:25.407Z,100.00
2023-03-15T23:28:29.472Z,100.00
2023-03-15T23:33:35.106Z,100.00
